sensor_id;sensor_type;location;lat;lon;timestamp;pressure;altitude;pressure_sealevel;temperature;humidity
21203;BME280;10759;51.982;9.232;2022-07-24T00:01:41;100861.63;;;15.55;95.30
21203;BME280;10759;51.982;9.232;2022-07-24T00:04:10;100820.69;;;15.28;95.34
21203;BME280;10759;51.982;9.232;2022-07-24T00:06:38;100860.97;;;15.50;95.22
21203;BME280;10759;51.982;9.232;2022-07-24T00:09:08;100838.94;;;15.22;96.50
21203;BME280;10759;51.982;9.232;2022-07-24T00:11:36;100707.97;;;14.43;96.90
21203;BME280;10759;51.982;9.232;2022-07-24T00:14:04;100853.69;;;15.15;98.01
21203;BME280;10759;51.982;9.232;2022-07-24T00:16:36;100684.53;;;14.07;98.57
21203;BME280;10759;51.982;9.232;2022-07-24T00:19:05;100862.25;;;15.06;98.40
21203;BME280;10759;51.982;9.232;2022-07-24T00:21:34;100802.66;;;14.74;98.35
21203;BME280;10759;51.982;9.232;2022-07-24T00:24:02;100728.44;;;14.28;98.98
21203;BME280;10759;51.982;9.232;2022-07-24T00:26:32;100842.38;;;14.90;98.71
21203;BME280;10759;51.982;9.232;2022-07-24T00:29:00;100762.16;;;14.36;98.46
21203;BME280;10759;51.982;9.232;2022-07-24T00:31:29;100867.47;;;14.92;99.13
21203;BME280;10759;51.982;9.232;2022-07-24T00:33:59;100846.91;;;14.70;98.57
21203;BME280;10759;51.982;9.232;2022-07-24T00:36:28;100853.44;;;14.84;98.34
21203;BME280;10759;51.982;9.232;2022-07-24T00:38:56;100859.16;;;14.77;98.06
21203;BME280;10759;51.982;9.232;2022-07-24T00:41:24;100858.34;;;14.75;98.48
21203;BME280;10759;51.982;9.232;2022-07-24T00:44:02;100804.94;;;14.44;99.02
21203;BME280;10759;51.982;9.232;2022-07-24T00:46:32;100855.69;;;14.74;99.17
21203;BME280;10759;51.982;9.232;2022-07-24T00:49:00;100818.22;;;14.49;99.09
21203;BME280;10759;51.982;9.232;2022-07-24T00:51:29;100736.03;;;14.01;99.56
21203;BME280;10759;51.982;9.232;2022-07-24T00:53:57;100816.03;;;14.38;100.00
21203;BME280;10759;51.982;9.232;2022-07-24T00:56:26;100841.56;;;14.69;99.61
21203;BME280;10759;51.982;9.232;2022-07-24T00:58:54;100671.59;;;13.57;99.51
21203;BME280;10759;51.982;9.232;2022-07-24T01:01:24;100839.31;;;14.59;100.00
21203;BME280;10759;51.982;9.232;2022-07-24T01:03:52;100784.81;;;14.51;98.15
21203;BME280;10759;51.982;9.232;2022-07-24T01:06:20;100740.69;;;14.16;97.80
21203;BME280;10759;51.982;9.232;2022-07-24T01:08:50;100821.66;;;14.71;98.01
21203;BME280;10759;51.982;9.232;2022-07-24T01:11:18;100846.31;;;14.64;99.02
21203;BME280;10759;51.982;9.232;2022-07-24T01:13:48;100809.22;;;14.29;99.91
21203;BME280;10759;51.982;9.232;2022-07-24T01:16:17;100842.47;;;14.49;100.00
21203;BME280;10759;51.982;9.232;2022-07-24T01:18:47;100740.97;;;13.91;100.00
21203;BME280;10759;51.982;9.232;2022-07-24T01:21:17;100832.00;;;14.43;100.00
21203;BME280;10759;51.982;9.232;2022-07-24T01:23:45;100839.63;;;14.52;99.83
21203;BME280;10759;51.982;9.232;2022-07-24T01:26:13;100831.34;;;14.37;100.00
21203;BME280;10759;51.982;9.232;2022-07-24T01:28:42;100647.13;;;13.22;100.00
21203;BME280;10759;51.982;9.232;2022-07-24T01:31:10;100731.97;;;13.71;100.00
21203;BME280;10759;51.982;9.232;2022-07-24T01:33:39;100814.63;;;14.29;100.00
21203;BME280;10759;51.982;9.232;2022-07-24T01:36:07;100833.50;;;14.29;100.00
21203;BME280;10759;51.982;9.232;2022-07-24T01:38:37;100830.78;;;14.29;100.00
21203;BME280;10759;51.982;9.232;2022-07-24T01:41:05;100725.81;;;13.68;100.00
21203;BME280;10759;51.982;9.232;2022-07-24T01:43:33;100776.75;;;13.93;100.00
21203;BME280;10759;51.982;9.232;2022-07-24T01:46:01;100652.78;;;13.16;100.00
21203;BME280;10759;51.982;9.232;2022-07-24T01:48:30;100835.00;;;14.16;100.00
21203;BME280;10759;51.982;9.232;2022-07-24T01:50:58;100840.41;;;14.16;100.00
21203;BME280;10759;51.982;9.232;2022-07-24T01:53:26;100833.38;;;14.12;100.00
21203;BME280;10759;51.982;9.232;2022-07-24T01:55:56;100835.44;;;14.07;100.00
21203;BME280;10759;51.982;9.232;2022-07-24T01:58:24;100733.94;;;13.47;100.00
21203;BME280;10759;51.982;9.232;2022-07-24T02:00:52;100787.31;;;13.79;100.00
21203;BME280;10759;51.982;9.232;2022-07-24T02:03:21;100755.19;;;13.53;100.00
21203;BME280;10759;51.982;9.232;2022-07-24T02:05:49;100651.81;;;12.96;100.00
21203;BME280;10759;51.982;9.232;2022-07-24T02:08:17;100712.94;;;13.35;100.00
21203;BME280;10759;51.982;9.232;2022-07-24T02:10:46;100838.16;;;14.05;100.00
21203;BME280;10759;51.982;9.232;2022-07-24T02:13:15;100832.78;;;14.05;100.00
21203;BME280;10759;51.982;9.232;2022-07-24T02:15:43;100710.41;;;13.32;100.00
21203;BME280;10759;51.982;9.232;2022-07-24T02:18:12;100811.22;;;13.86;100.00
21203;BME280;10759;51.982;9.232;2022-07-24T02:20:40;100816.44;;;13.89;100.00
21203;BME280;10759;51.982;9.232;2022-07-24T02:23:08;100832.47;;;13.92;100.00
21203;BME280;10759;51.982;9.232;2022-07-24T02:25:37;100807.97;;;13.78;100.00
21203;BME280;10759;51.982;9.232;2022-07-24T02:28:05;100828.25;;;13.87;100.00
21203;BME280;10759;51.982;9.232;2022-07-24T02:30:35;100817.00;;;13.77;100.00
21203;BME280;10759;51.982;9.232;2022-07-24T02:33:03;100826.28;;;13.90;100.00
21203;BME280;10759;51.982;9.232;2022-07-24T02:35:31;100788.50;;;13.51;100.00
21203;BME280;10759;51.982;9.232;2022-07-24T02:37:59;100790.19;;;13.53;100.00
21203;BME280;10759;51.982;9.232;2022-07-24T02:40:28;100701.59;;;13.06;100.00
21203;BME280;10759;51.982;9.232;2022-07-24T02:42:56;100804.41;;;13.57;100.00
21203;BME280;10759;51.982;9.232;2022-07-24T02:45:24;100687.13;;;12.88;100.00
21203;BME280;10759;51.982;9.232;2022-07-24T02:47:55;100783.53;;;13.42;100.00
21203;BME280;10759;51.982;9.232;2022-07-24T02:50:28;100831.00;;;13.65;100.00
21203;BME280;10759;51.982;9.232;2022-07-24T02:52:57;100837.19;;;13.67;100.00
21203;BME280;10759;51.982;9.232;2022-07-24T02:55:25;100817.06;;;13.55;100.00
21203;BME280;10759;51.982;9.232;2022-07-24T02:57:55;100837.44;;;13.61;100.00
21203;BME280;10759;51.982;9.232;2022-07-24T03:00:23;100815.72;;;13.45;100.00
21203;BME280;10759;51.982;9.232;2022-07-24T03:02:53;100759.78;;;13.09;100.00
21203;BME280;10759;51.982;9.232;2022-07-24T03:05:22;100833.03;;;13.60;100.00
21203;BME280;10759;51.982;9.232;2022-07-24T03:07:50;100842.72;;;13.64;100.00
21203;BME280;10759;51.982;9.232;2022-07-24T03:10:19;100814.84;;;13.44;100.00
21203;BME280;10759;51.982;9.232;2022-07-24T03:12:47;100745.84;;;12.99;100.00
21203;BME280;10759;51.982;9.232;2022-07-24T03:15:16;100815.50;;;13.49;100.00
21203;BME280;10759;51.982;9.232;2022-07-24T03:17:49;100839.09;;;13.65;100.00
21203;BME280;10759;51.982;9.232;2022-07-24T03:20:19;100842.97;;;13.58;100.00
21203;BME280;10759;51.982;9.232;2022-07-24T03:22:48;100844.13;;;13.52;100.00
21203;BME280;10759;51.982;9.232;2022-07-24T03:25:16;100842.09;;;13.57;100.00
21203;BME280;10759;51.982;9.232;2022-07-24T03:27:45;100841.47;;;13.50;100.00
21203;BME280;10759;51.982;9.232;2022-07-24T03:30:15;100846.63;;;13.57;100.00
21203;BME280;10759;51.982;9.232;2022-07-24T03:32:44;100647.81;;;12.43;100.00
21203;BME280;10759;51.982;9.232;2022-07-24T03:35:12;100839.59;;;13.52;100.00
21203;BME280;10759;51.982;9.232;2022-07-24T03:37:42;100835.28;;;13.48;100.00
21203;BME280;10759;51.982;9.232;2022-07-24T03:40:11;100793.75;;;13.11;100.00
21203;BME280;10759;51.982;9.232;2022-07-24T03:42:40;100820.13;;;13.24;100.00
21203;BME280;10759;51.982;9.232;2022-07-24T03:45:09;100829.75;;;13.31;100.00
21203;BME280;10759;51.982;9.232;2022-07-24T03:47:37;100776.94;;;13.06;100.00
21203;BME280;10759;51.982;9.232;2022-07-24T03:50:06;100756.88;;;12.93;100.00
21203;BME280;10759;51.982;9.232;2022-07-24T03:52:34;100840.81;;;13.45;100.00
21203;BME280;10759;51.982;9.232;2022-07-24T03:55:05;100688.47;;;12.56;100.00
21203;BME280;10759;51.982;9.232;2022-07-24T03:57:34;100836.78;;;13.56;100.00
21203;BME280;10759;51.982;9.232;2022-07-24T04:00:03;100844.38;;;13.46;100.00
21203;BME280;10759;51.982;9.232;2022-07-24T04:02:38;100752.84;;;13.03;100.00
21203;BME280;10759;51.982;9.232;2022-07-24T04:05:07;100609.72;;;12.32;100.00
21203;BME280;10759;51.982;9.232;2022-07-24T04:07:36;100833.97;;;13.59;100.00
21203;BME280;10759;51.982;9.232;2022-07-24T04:10:08;100825.09;;;13.57;100.00
21203;BME280;10759;51.982;9.232;2022-07-24T04:12:36;100810.19;;;13.48;100.00
21203;BME280;10759;51.982;9.232;2022-07-24T04:15:05;100784.81;;;13.33;100.00
21203;BME280;10759;51.982;9.232;2022-07-24T04:17:38;100818.53;;;13.62;100.00
21203;BME280;10759;51.982;9.232;2022-07-24T04:20:08;100748.00;;;13.34;100.00
21203;BME280;10759;51.982;9.232;2022-07-24T04:22:36;100822.25;;;14.01;100.00
21203;BME280;10759;51.982;9.232;2022-07-24T04:25:08;100827.28;;;14.67;100.00
21203;BME280;10759;51.982;9.232;2022-07-24T04:27:36;100832.09;;;15.15;99.05
21203;BME280;10759;51.982;9.232;2022-07-24T04:30:05;100825.19;;;15.81;94.90
21203;BME280;10759;51.982;9.232;2022-07-24T04:32:34;100829.69;;;16.31;91.05
21203;BME280;10759;51.982;9.232;2022-07-24T04:35:02;100808.78;;;16.50;88.72
21203;BME280;10759;51.982;9.232;2022-07-24T04:37:30;100798.44;;;17.06;85.88
21203;BME280;10759;51.982;9.232;2022-07-24T04:39:58;100811.75;;;17.25;84.25
21203;BME280;10759;51.982;9.232;2022-07-24T04:42:29;100827.75;;;17.90;81.82
21203;BME280;10759;51.982;9.232;2022-07-24T04:44:57;100820.31;;;18.22;79.16
21203;BME280;10759;51.982;9.232;2022-07-24T04:47:25;100776.84;;;17.05;80.99
21203;BME280;10759;51.982;9.232;2022-07-24T04:49:53;100830.06;;;16.25;88.42
21203;BME280;10759;51.982;9.232;2022-07-24T04:52:21;100692.75;;;15.48;88.12
21203;BME280;10759;51.982;9.232;2022-07-24T04:54:49;100832.31;;;16.33;88.11
21203;BME280;10759;51.982;9.232;2022-07-24T04:57:17;100742.97;;;15.17;92.14
21203;BME280;10759;51.982;9.232;2022-07-24T04:59:47;100819.31;;;15.73;92.55
21203;BME280;10759;51.982;9.232;2022-07-24T05:02:15;100834.22;;;15.97;92.06
21203;BME280;10759;51.982;9.232;2022-07-24T05:04:43;100839.28;;;16.54;90.22
21203;BME280;10759;51.982;9.232;2022-07-24T05:07:11;100828.38;;;17.19;85.39
21203;BME280;10759;51.982;9.232;2022-07-24T05:09:39;100741.78;;;16.56;83.82
21203;BME280;10759;51.982;9.232;2022-07-24T05:12:07;100665.03;;;15.44;87.62
21203;BME280;10759;51.982;9.232;2022-07-24T05:14:35;100844.19;;;16.79;86.95
21203;BME280;10759;51.982;9.232;2022-07-24T05:17:05;100836.69;;;16.35;89.34
21203;BME280;10759;51.982;9.232;2022-07-24T05:19:33;100836.50;;;16.22;92.34
21203;BME280;10759;51.982;9.232;2022-07-24T05:22:01;100831.97;;;16.23;91.23
21203;BME280;10759;51.982;9.232;2022-07-24T05:24:29;100842.66;;;16.73;88.94
21203;BME280;10759;51.982;9.232;2022-07-24T05:26:57;100804.63;;;17.08;86.05
21203;BME280;10759;51.982;9.232;2022-07-24T05:29:25;100831.00;;;17.21;86.53
21203;BME280;10759;51.982;9.232;2022-07-24T05:31:53;100831.88;;;17.05;86.02
21203;BME280;10759;51.982;9.232;2022-07-24T05:34:23;100812.81;;;16.75;88.17
21203;BME280;10759;51.982;9.232;2022-07-24T05:36:51;100812.78;;;16.43;90.97
21203;BME280;10759;51.982;9.232;2022-07-24T05:39:20;100818.81;;;16.48;91.95
21203;BME280;10759;51.982;9.232;2022-07-24T05:41:48;100799.38;;;16.73;88.94
21203;BME280;10759;51.982;9.232;2022-07-24T05:44:16;100805.84;;;17.03;87.90
21203;BME280;10759;51.982;9.232;2022-07-24T05:46:44;100819.72;;;17.28;86.43
21203;BME280;10759;51.982;9.232;2022-07-24T05:49:13;100622.44;;;16.30;86.52
21203;BME280;10759;51.982;9.232;2022-07-24T05:51:42;100813.44;;;17.12;87.20
21203;BME280;10759;51.982;9.232;2022-07-24T05:54:11;100813.72;;;16.91;90.62
21203;BME280;10759;51.982;9.232;2022-07-24T05:56:40;100816.63;;;17.34;88.69
21203;BME280;10759;51.982;9.232;2022-07-24T05:59:08;100814.81;;;17.65;87.44
21203;BME280;10759;51.982;9.232;2022-07-24T06:01:36;100806.53;;;17.83;85.86
21203;BME280;10759;51.982;9.232;2022-07-24T06:04:05;100803.25;;;18.06;84.08
21203;BME280;10759;51.982;9.232;2022-07-24T06:06:33;100798.72;;;18.35;83.87
21203;BME280;10759;51.982;9.232;2022-07-24T06:09:03;100758.22;;;18.18;84.17
21203;BME280;10759;51.982;9.232;2022-07-24T06:11:32;100792.53;;;18.19;84.52
21203;BME280;10759;51.982;9.232;2022-07-24T06:14:00;100707.53;;;17.47;84.74
21203;BME280;10759;51.982;9.232;2022-07-24T06:16:28;100730.41;;;17.71;83.46
21203;BME280;10759;51.982;9.232;2022-07-24T06:18:56;100789.53;;;18.09;82.11
21203;BME280;10759;51.982;9.232;2022-07-24T06:21:25;100775.75;;;17.98;84.15
21203;BME280;10759;51.982;9.232;2022-07-24T06:23:53;100785.84;;;18.24;82.34
21203;BME280;10759;51.982;9.232;2022-07-24T06:26:23;100786.66;;;18.68;81.09
21203;BME280;10759;51.982;9.232;2022-07-24T06:28:51;100776.47;;;18.86;80.52
21203;BME280;10759;51.982;9.232;2022-07-24T06:31:19;100774.56;;;19.28;79.36
21203;BME280;10759;51.982;9.232;2022-07-24T06:33:47;100771.31;;;19.48;80.39
21203;BME280;10759;51.982;9.232;2022-07-24T06:36:15;100778.03;;;19.30;79.03
21203;BME280;10759;51.982;9.232;2022-07-24T06:38:43;100776.66;;;19.50;79.93
21203;BME280;10759;51.982;9.232;2022-07-24T06:41:11;100754.72;;;19.53;78.80
21203;BME280;10759;51.982;9.232;2022-07-24T06:43:41;100781.84;;;19.93;78.95
21203;BME280;10759;51.982;9.232;2022-07-24T06:46:09;100780.88;;;20.07;78.20
21203;BME280;10759;51.982;9.232;2022-07-24T06:48:37;100757.03;;;19.98;77.75
21203;BME280;10759;51.982;9.232;2022-07-24T06:51:05;100777.56;;;20.53;77.32
21203;BME280;10759;51.982;9.232;2022-07-24T06:53:33;100775.28;;;20.84;75.58
21203;BME280;10759;51.982;9.232;2022-07-24T06:56:01;100728.94;;;20.72;74.28
21203;BME280;10759;51.982;9.232;2022-07-24T06:58:29;100774.09;;;20.88;73.67
21203;BME280;10759;51.982;9.232;2022-07-24T07:00:59;100776.53;;;20.67;75.34
21203;BME280;10759;51.982;9.232;2022-07-24T07:03:27;100776.09;;;20.73;74.85
21203;BME280;10759;51.982;9.232;2022-07-24T07:05:55;100728.13;;;20.46;75.16
21203;BME280;10759;51.982;9.232;2022-07-24T07:08:23;100779.22;;;20.79;73.75
21203;BME280;10759;51.982;9.232;2022-07-24T07:10:51;100770.88;;;20.94;72.56
21203;BME280;10759;51.982;9.232;2022-07-24T07:13:20;100686.44;;;20.94;73.69
21203;BME280;10759;51.982;9.232;2022-07-24T07:15:48;100773.13;;;21.48;73.10
21203;BME280;10759;51.982;9.232;2022-07-24T07:18:18;100775.47;;;21.77;70.34
21203;BME280;10759;51.982;9.232;2022-07-24T07:20:46;100773.47;;;21.90;70.62
21203;BME280;10759;51.982;9.232;2022-07-24T07:23:21;100731.22;;;22.18;68.91
21203;BME280;10759;51.982;9.232;2022-07-24T07:25:53;100753.19;;;22.39;68.86
21203;BME280;10759;51.982;9.232;2022-07-24T07:28:21;100773.81;;;22.43;65.00
21203;BME280;10759;51.982;9.232;2022-07-24T07:30:49;100777.25;;;22.68;65.15
21203;BME280;10759;51.982;9.232;2022-07-24T07:33:19;100773.66;;;22.67;64.90
21203;BME280;10759;51.982;9.232;2022-07-24T07:35:47;100767.16;;;22.80;64.13
21203;BME280;10759;51.982;9.232;2022-07-24T07:38:16;100768.38;;;23.30;64.46
21203;BME280;10759;51.982;9.232;2022-07-24T07:40:50;100750.53;;;23.26;60.15
21203;BME280;10759;51.982;9.232;2022-07-24T07:43:18;100774.94;;;23.60;61.93
21203;BME280;10759;51.982;9.232;2022-07-24T07:45:46;100755.28;;;23.66;58.24
21203;BME280;10759;51.982;9.232;2022-07-24T07:48:16;100716.47;;;23.51;60.31
21203;BME280;10759;51.982;9.232;2022-07-24T07:50:45;100592.38;;;23.01;58.55
21203;BME280;10759;51.982;9.232;2022-07-24T07:53:13;100599.16;;;23.27;58.44
21203;BME280;10759;51.982;9.232;2022-07-24T07:55:42;100770.47;;;24.22;56.85
21203;BME280;10759;51.982;9.232;2022-07-24T07:58:10;100755.25;;;24.39;56.11
21203;BME280;10759;51.982;9.232;2022-07-24T08:00:38;100767.94;;;24.40;52.72
21203;BME280;10759;51.982;9.232;2022-07-24T08:03:06;100768.06;;;24.38;56.05
21203;BME280;10759;51.982;9.232;2022-07-24T08:05:35;100705.75;;;24.21;54.52
21203;BME280;10759;51.982;9.232;2022-07-24T08:08:05;100760.63;;;24.81;53.44
21203;BME280;10759;51.982;9.232;2022-07-24T08:10:34;100756.25;;;24.88;52.26
21203;BME280;10759;51.982;9.232;2022-07-24T08:13:03;100753.72;;;24.96;52.50
21203;BME280;10759;51.982;9.232;2022-07-24T08:15:31;100753.28;;;25.11;51.40
21203;BME280;10759;51.982;9.232;2022-07-24T08:17:59;100659.06;;;24.73;51.21
21203;BME280;10759;51.982;9.232;2022-07-24T08:20:27;100706.94;;;24.88;49.81
21203;BME280;10759;51.982;9.232;2022-07-24T08:22:55;100742.38;;;25.20;48.77
21203;BME280;10759;51.982;9.232;2022-07-24T08:25:26;100744.59;;;25.15;48.72
21203;BME280;10759;51.982;9.232;2022-07-24T08:27:54;100733.63;;;25.15;49.69
21203;BME280;10759;51.982;9.232;2022-07-24T08:30:22;100743.34;;;25.39;50.21
21203;BME280;10759;51.982;9.232;2022-07-24T08:32:52;100712.47;;;25.17;51.10
21203;BME280;10759;51.982;9.232;2022-07-24T08:35:20;100714.34;;;25.36;48.15
21203;BME280;10759;51.982;9.232;2022-07-24T08:37:58;100743.63;;;25.65;48.40
21203;BME280;10759;51.982;9.232;2022-07-24T08:40:33;100580.31;;;24.75;47.57
21203;BME280;10759;51.982;9.232;2022-07-24T08:43:02;100728.84;;;25.76;47.93
21203;BME280;10759;51.982;9.232;2022-07-24T08:45:34;100738.25;;;25.73;46.07
21203;BME280;10759;51.982;9.232;2022-07-24T08:48:04;100735.50;;;25.92;47.71
21203;BME280;10759;51.982;9.232;2022-07-24T08:50:33;100729.13;;;26.02;45.12
21203;BME280;10759;51.982;9.232;2022-07-24T08:53:03;100739.16;;;26.11;45.76
21203;BME280;10759;51.982;9.232;2022-07-24T08:55:33;100731.88;;;26.29;46.62
21203;BME280;10759;51.982;9.232;2022-07-24T08:58:02;100731.56;;;26.32;43.92
21203;BME280;10759;51.982;9.232;2022-07-24T09:00:31;100731.97;;;26.38;44.11
21203;BME280;10759;51.982;9.232;2022-07-24T09:02:59;100698.00;;;26.39;44.41
21203;BME280;10759;51.982;9.232;2022-07-24T09:05:28;100723.13;;;26.44;43.63
21203;BME280;10759;51.982;9.232;2022-07-24T09:08:08;100734.81;;;26.18;43.01
21203;BME280;10759;51.982;9.232;2022-07-24T09:10:38;100729.22;;;26.38;46.54
21203;BME280;10759;51.982;9.232;2022-07-24T09:13:13;100723.84;;;26.73;44.54
21203;BME280;10759;51.982;9.232;2022-07-24T09:15:44;100732.56;;;26.87;43.42
21203;BME280;10759;51.982;9.232;2022-07-24T09:18:32;100724.34;;;27.05;41.95
21203;BME280;10759;51.982;9.232;2022-07-24T09:21:12;100727.66;;;27.08;40.61
21203;BME280;10759;51.982;9.232;2022-07-24T09:23:41;100711.28;;;27.07;42.20
21203;BME280;10759;51.982;9.232;2022-07-24T09:26:11;100727.56;;;27.18;43.75
21203;BME280;10759;51.982;9.232;2022-07-24T09:28:46;100728.91;;;27.32;41.50
21203;BME280;10759;51.982;9.232;2022-07-24T09:31:14;100699.06;;;27.01;40.44
21203;BME280;10759;51.982;9.232;2022-07-24T09:33:43;100730.63;;;26.97;41.98
21203;BME280;10759;51.982;9.232;2022-07-24T09:36:12;100725.97;;;26.97;41.22
21203;BME280;10759;51.982;9.232;2022-07-24T09:38:46;100660.66;;;26.73;41.16
21203;BME280;10759;51.982;9.232;2022-07-24T09:41:21;100658.59;;;26.93;42.25
21203;BME280;10759;51.982;9.232;2022-07-24T09:43:57;100723.41;;;27.32;42.45
21203;BME280;10759;51.982;9.232;2022-07-24T09:46:26;100728.44;;;27.36;42.88
21203;BME280;10759;51.982;9.232;2022-07-24T09:48:57;100688.06;;;27.01;41.48
21203;BME280;10759;51.982;9.232;2022-07-24T09:51:26;100672.31;;;27.11;42.95
21203;BME280;10759;51.982;9.232;2022-07-24T09:53:57;100713.28;;;27.32;40.93
21203;BME280;10759;51.982;9.232;2022-07-24T09:56:27;100707.09;;;27.30;43.25
21203;BME280;10759;51.982;9.232;2022-07-24T09:58:56;100630.69;;;26.70;42.50
21203;BME280;10759;51.982;9.232;2022-07-24T10:01:27;100705.19;;;27.31;41.11
21203;BME280;10759;51.982;9.232;2022-07-24T10:03:56;100697.00;;;27.39;42.24
21203;BME280;10759;51.982;9.232;2022-07-24T10:06:26;100689.94;;;27.36;40.83
21203;BME280;10759;51.982;9.232;2022-07-24T10:08:55;100595.41;;;26.75;41.52
21203;BME280;10759;51.982;9.232;2022-07-24T10:11:24;100647.56;;;27.11;42.59
21203;BME280;10759;51.982;9.232;2022-07-24T10:13:54;100697.22;;;27.10;40.92
21203;BME280;10759;51.982;9.232;2022-07-24T10:16:29;100676.66;;;26.78;41.70
21203;BME280;10759;51.982;9.232;2022-07-24T10:18:59;100695.84;;;27.06;41.59
21203;BME280;10759;51.982;9.232;2022-07-24T10:21:30;100670.22;;;27.23;43.73
21203;BME280;10759;51.982;9.232;2022-07-24T10:27:10;100678.78;;;27.90;43.09
21203;BME280;10759;51.982;9.232;2022-07-24T10:29:47;100685.94;;;28.01;42.88
21203;BME280;10759;51.982;9.232;2022-07-24T10:32:16;100652.78;;;27.85;41.48
21203;BME280;10759;51.982;9.232;2022-07-24T10:34:48;100599.78;;;27.56;40.22
21203;BME280;10759;51.982;9.232;2022-07-24T10:37:24;100629.41;;;27.62;41.90
21203;BME280;10759;51.982;9.232;2022-07-24T10:40:06;100664.19;;;27.98;40.26
21203;BME280;10759;51.982;9.232;2022-07-24T10:45:40;100661.81;;;28.03;41.52
21203;BME280;10759;51.982;9.232;2022-07-24T10:48:30;100651.28;;;27.98;40.98
21203;BME280;10759;51.982;9.232;2022-07-24T10:51:04;100670.38;;;28.26;39.61
21203;BME280;10759;51.982;9.232;2022-07-24T10:53:52;100672.44;;;28.32;40.35
21203;BME280;10759;51.982;9.232;2022-07-24T10:56:23;100612.13;;;28.13;39.86
21203;BME280;10759;51.982;9.232;2022-07-24T10:58:57;100666.06;;;28.32;40.00
21203;BME280;10759;51.982;9.232;2022-07-24T11:01:34;100651.81;;;28.44;42.17
21203;BME280;10759;51.982;9.232;2022-07-24T11:04:04;100658.28;;;28.69;38.92
21203;BME280;10759;51.982;9.232;2022-07-24T11:06:52;100638.47;;;28.58;40.55
21203;BME280;10759;51.982;9.232;2022-07-24T11:09:21;100663.97;;;28.68;39.07
21203;BME280;10759;51.982;9.232;2022-07-24T11:12:05;100657.31;;;28.36;38.43
21203;BME280;10759;51.982;9.232;2022-07-24T11:14:47;100661.75;;;28.21;38.54
21203;BME280;10759;51.982;9.232;2022-07-24T11:17:51;100653.56;;;27.77;40.17
21203;BME280;10759;51.982;9.232;2022-07-24T11:20:21;100647.25;;;27.58;40.16
21203;BME280;10759;51.982;9.232;2022-07-24T11:22:51;100634.97;;;27.45;39.95
21203;BME280;10759;51.982;9.232;2022-07-24T11:25:22;100641.28;;;27.63;40.48
21203;BME280;10759;51.982;9.232;2022-07-24T11:27:53;100645.72;;;27.82;41.04
21203;BME280;10759;51.982;9.232;2022-07-24T11:30:24;100623.28;;;27.77;40.06
21203;BME280;10759;51.982;9.232;2022-07-24T11:32:54;100635.47;;;28.00;40.04
21203;BME280;10759;51.982;9.232;2022-07-24T11:35:27;100621.69;;;28.00;41.77
21203;BME280;10759;51.982;9.232;2022-07-24T11:37:56;100628.13;;;28.09;38.96
21203;BME280;10759;51.982;9.232;2022-07-24T11:40:26;100629.88;;;28.18;40.10
21203;BME280;10759;51.982;9.232;2022-07-24T11:42:55;100616.63;;;28.22;40.24
21203;BME280;10759;51.982;9.232;2022-07-24T11:45:26;100617.03;;;28.43;39.80
21203;BME280;10759;51.982;9.232;2022-07-24T11:47:55;100621.94;;;28.66;39.98
21203;BME280;10759;51.982;9.232;2022-07-24T11:50:26;100545.91;;;28.31;38.93
21203;BME280;10759;51.982;9.232;2022-07-24T11:52:54;100614.00;;;28.79;38.11
21203;BME280;10759;51.982;9.232;2022-07-24T11:55:24;100594.00;;;28.69;39.97
21203;BME280;10759;51.982;9.232;2022-07-24T11:57:54;100563.88;;;28.76;39.08
21203;BME280;10759;51.982;9.232;2022-07-24T12:00:43;100609.56;;;28.95;37.52
21203;BME280;10759;51.982;9.232;2022-07-24T12:03:12;100604.53;;;28.74;38.74
21203;BME280;10759;51.982;9.232;2022-07-24T12:05:41;100609.34;;;28.63;38.20
21203;BME280;10759;51.982;9.232;2022-07-24T12:08:19;100516.06;;;28.01;40.04
21203;BME280;10759;51.982;9.232;2022-07-24T12:10:54;100590.13;;;28.29;39.87
21203;BME280;10759;51.982;9.232;2022-07-24T12:13:24;100596.38;;;28.47;40.85
21203;BME280;10759;51.982;9.232;2022-07-24T12:15:52;100579.19;;;28.62;40.67
21203;BME280;10759;51.982;9.232;2022-07-24T12:18:21;100585.75;;;28.85;39.87
21203;BME280;10759;51.982;9.232;2022-07-24T12:20:58;100575.09;;;29.15;38.29
21203;BME280;10759;51.982;9.232;2022-07-24T12:23:27;100587.84;;;29.00;37.14
21203;BME280;10759;51.982;9.232;2022-07-24T12:25:56;100587.47;;;29.03;37.71
21203;BME280;10759;51.982;9.232;2022-07-24T12:28:24;100589.75;;;29.07;38.31
21203;BME280;10759;51.982;9.232;2022-07-24T12:30:53;100586.47;;;29.12;39.25
21203;BME280;10759;51.982;9.232;2022-07-24T12:33:25;100586.78;;;29.25;38.73
21203;BME280;10759;51.982;9.232;2022-07-24T12:35:57;100573.69;;;29.27;38.78
21203;BME280;10759;51.982;9.232;2022-07-24T12:38:28;100581.44;;;29.32;39.34
21203;BME280;10759;51.982;9.232;2022-07-24T12:41:04;100562.69;;;29.19;40.09
21203;BME280;10759;51.982;9.232;2022-07-24T12:43:33;100577.16;;;29.13;39.01
21203;BME280;10759;51.982;9.232;2022-07-24T12:46:06;100565.63;;;29.09;39.73
21203;BME280;10759;51.982;9.232;2022-07-24T12:48:36;100561.63;;;28.87;38.37
21203;BME280;10759;51.982;9.232;2022-07-24T12:51:07;100551.47;;;28.80;39.74
21203;BME280;10759;51.982;9.232;2022-07-24T12:53:38;100550.59;;;28.71;39.73
21203;BME280;10759;51.982;9.232;2022-07-24T12:56:09;100550.25;;;28.74;39.50
21203;BME280;10759;51.982;9.232;2022-07-24T13:01:46;100532.53;;;29.09;39.41
21203;BME280;10759;51.982;9.232;2022-07-24T13:04:17;100419.31;;;28.37;38.09
21203;BME280;10759;51.982;9.232;2022-07-24T13:06:48;100486.66;;;28.84;39.06
21203;BME280;10759;51.982;9.232;2022-07-24T13:09:18;100524.75;;;29.13;37.87
21203;BME280;10759;51.982;9.232;2022-07-24T13:11:49;100511.97;;;29.04;39.61